createdAt,value
2023-01-12T00:01:30.619Z,8.82
2023-01-12T00:03:57.308Z,8.92
2023-01-12T00:06:23.957Z,8.91
2023-01-12T00:08:50.640Z,8.66
2023-01-12T00:11:17.299Z,8.53
2023-01-12T00:13:43.959Z,8.44
2023-01-12T00:16:10.718Z,8.53
2023-01-12T00:18:37.407Z,8.18
2023-01-12T00:21:04.148Z,8.16
2023-01-12T00:23:30.791Z,8.41
2023-01-12T00:25:57.738Z,8.36
2023-01-12T00:28:24.437Z,8.33
2023-01-12T00:30:51.104Z,8.44
2023-01-12T00:33:17.763Z,8.14
2023-01-12T00:35:44.475Z,8.23
2023-01-12T00:38:11.186Z,8.14
2023-01-12T00:40:37.849Z,8.20
2023-01-12T00:43:04.506Z,8.33
2023-01-12T00:45:31.215Z,8.44
2023-01-12T00:47:57.934Z,8.25
2023-01-12T00:50:24.634Z,8.23
2023-01-12T00:52:51.305Z,8.16
2023-01-12T00:55:17.978Z,8.30
2023-01-12T00:57:44.705Z,8.37
2023-01-12T01:00:11.353Z,8.44
2023-01-12T01:02:38.101Z,8.37
2023-01-12T01:05:04.839Z,8.45
2023-01-12T01:07:31.491Z,8.51
2023-01-12T01:09:58.193Z,8.45
2023-01-12T01:12:24.806Z,8.30
2023-01-12T01:14:51.464Z,8.17
2023-01-12T01:17:18.183Z,8.20
2023-01-12T01:19:44.877Z,8.15
2023-01-12T01:22:11.627Z,8.21
2023-01-12T01:24:38.869Z,8.30
2023-01-12T01:27:05.504Z,8.34
2023-01-12T01:29:32.339Z,8.26
2023-01-12T01:31:59.042Z,8.31
2023-01-12T01:34:25.721Z,8.26
2023-01-12T01:36:52.419Z,7.88
2023-01-12T01:39:19.103Z,8.00
2023-01-12T01:41:45.732Z,7.73
2023-01-12T01:44:12.392Z,7.81
2023-01-12T01:46:39.200Z,7.98
2023-01-12T01:49:05.871Z,8.08
2023-01-12T01:51:32.530Z,8.20
2023-01-12T01:53:59.276Z,8.06
2023-01-12T01:56:25.976Z,8.14
2023-01-12T01:58:52.647Z,8.23
2023-01-12T02:01:19.330Z,8.26
2023-01-12T02:03:46.081Z,8.25
2023-01-12T02:06:12.724Z,8.28
2023-01-12T02:08:39.444Z,8.44
2023-01-12T02:11:06.163Z,8.35
2023-01-12T02:13:32.850Z,8.27
2023-01-12T02:16:01.541Z,8.39
2023-01-12T02:18:28.270Z,8.04
2023-01-12T02:20:54.963Z,8.22
2023-01-12T02:23:21.679Z,8.23
2023-01-12T02:25:48.463Z,8.16
2023-01-12T02:28:15.125Z,8.18
2023-01-12T02:30:41.787Z,8.22
2023-01-12T02:33:08.454Z,8.24
2023-01-12T02:35:35.334Z,8.31
2023-01-12T02:38:01.936Z,8.35
2023-01-12T02:40:28.619Z,8.20
2023-01-12T02:42:55.304Z,8.30
2023-01-12T02:45:21.977Z,8.25
2023-01-12T02:47:48.754Z,8.02
2023-01-12T02:50:15.385Z,7.91
2023-01-12T02:52:42.223Z,7.94
2023-01-12T02:55:08.877Z,7.99
2023-01-12T02:57:35.535Z,8.05
2023-01-12T03:00:02.199Z,8.01
2023-01-12T03:02:28.860Z,7.91
2023-01-12T03:04:55.825Z,7.83
2023-01-12T03:07:22.477Z,7.51
2023-01-12T03:09:49.175Z,7.78
2023-01-12T03:12:16.036Z,7.69
2023-01-12T03:14:42.775Z,7.83
2023-01-12T03:17:09.420Z,8.04
2023-01-12T03:19:36.083Z,8.08
2023-01-12T03:22:02.701Z,8.19
2023-01-12T03:24:29.396Z,8.19
2023-01-12T03:26:56.023Z,8.23
2023-01-12T03:29:22.728Z,8.23
2023-01-12T03:31:49.474Z,8.32
2023-01-12T03:34:16.191Z,8.13
2023-01-12T03:36:43.005Z,8.20
2023-01-12T03:39:09.668Z,8.27
2023-01-12T03:41:36.328Z,8.25
2023-01-12T03:44:02.948Z,8.27
2023-01-12T03:46:29.978Z,8.30
2023-01-12T03:48:56.645Z,8.29
2023-01-12T03:51:23.287Z,8.23
2023-01-12T03:53:50.122Z,8.18
2023-01-12T03:56:16.792Z,8.33
2023-01-12T03:58:43.725Z,8.36
2023-01-12T04:01:10.415Z,8.16
2023-01-12T04:03:37.199Z,8.24
2023-01-12T04:06:03.876Z,8.18
2023-01-12T04:08:30.607Z,8.08
2023-01-12T04:10:57.535Z,8.20
2023-01-12T04:13:24.367Z,8.32
2023-01-12T04:15:51.077Z,8.31
2023-01-12T04:18:17.747Z,8.33
2023-01-12T04:20:44.445Z,8.31
2023-01-12T04:23:11.140Z,8.35
2023-01-12T04:25:37.779Z,8.41
2023-01-12T04:28:04.596Z,8.38
2023-01-12T04:30:31.237Z,8.36
2023-01-12T04:32:57.949Z,8.33
2023-01-12T04:35:24.751Z,8.32
2023-01-12T04:37:51.421Z,8.25
2023-01-12T04:40:18.083Z,8.31
2023-01-12T04:42:44.798Z,8.26
2023-01-12T04:45:11.472Z,8.21
2023-01-12T04:47:38.108Z,8.12
2023-01-12T04:50:04.753Z,8.13
2023-01-12T04:52:31.383Z,7.71
2023-01-12T04:54:58.040Z,7.67
2023-01-12T04:57:24.711Z,7.61
2023-01-12T04:59:51.392Z,7.89
2023-01-12T05:02:18.243Z,7.89
2023-01-12T05:04:44.900Z,7.88
2023-01-12T05:07:11.564Z,8.00
2023-01-12T05:09:38.209Z,8.01
2023-01-12T05:12:04.950Z,7.88
2023-01-12T05:14:31.628Z,7.82
2023-01-12T05:16:58.494Z,7.85
2023-01-12T05:19:25.426Z,7.85
2023-01-12T05:21:52.136Z,7.79
2023-01-12T05:24:19.067Z,7.70
2023-01-12T05:26:45.731Z,7.74
2023-01-12T05:29:12.382Z,7.70
2023-01-12T05:31:39.034Z,7.53
2023-01-12T05:34:05.694Z,7.45
2023-01-12T05:36:32.385Z,7.37
2023-01-12T05:38:59.046Z,7.55
2023-01-12T05:41:25.700Z,7.63
2023-01-12T05:43:52.568Z,7.74
2023-01-12T05:46:19.444Z,7.60
2023-01-12T05:48:46.196Z,7.59
2023-01-12T05:51:12.823Z,7.74
2023-01-12T05:53:39.527Z,7.70
2023-01-12T05:56:06.258Z,7.61
2023-01-12T05:58:32.927Z,7.75
2023-01-12T06:00:59.640Z,7.75
2023-01-12T06:03:27.828Z,7.35
2023-01-12T06:05:54.753Z,7.39
2023-01-12T06:08:21.444Z,7.63
2023-01-12T06:10:48.074Z,7.43
2023-01-12T06:13:14.716Z,7.21
2023-01-12T06:15:41.414Z,7.20
2023-01-12T06:18:08.104Z,7.25
2023-01-12T06:20:34.725Z,7.42
2023-01-12T06:23:01.680Z,7.30
2023-01-12T06:25:28.358Z,7.30
2023-01-12T06:27:55.246Z,7.30
2023-01-12T06:30:21.960Z,7.34
2023-01-12T06:32:48.586Z,7.56
2023-01-12T06:35:19.384Z,7.31
2023-01-12T06:37:46.585Z,6.97
2023-01-12T06:40:13.296Z,7.11
2023-01-12T06:42:40.215Z,7.00
2023-01-12T06:45:06.868Z,7.03
2023-01-12T06:47:33.566Z,6.97
2023-01-12T06:50:00.231Z,6.77
2023-01-12T06:52:27.109Z,6.63
2023-01-12T06:54:53.867Z,6.63
2023-01-12T06:57:20.609Z,6.75
2023-01-12T06:59:47.275Z,6.56
2023-01-12T07:02:14.057Z,6.39
2023-01-12T07:04:40.781Z,6.58
2023-01-12T07:07:07.502Z,6.80
2023-01-12T07:09:34.390Z,6.50
2023-01-12T07:12:01.055Z,6.78
2023-01-12T07:14:27.701Z,6.96
2023-01-12T07:16:54.386Z,6.87
2023-01-12T07:19:21.031Z,6.94
2023-01-12T07:21:47.679Z,7.00
2023-01-12T07:24:14.338Z,6.92
2023-01-12T07:26:41.036Z,6.41
2023-01-12T07:29:07.716Z,6.44
2023-01-12T07:31:34.405Z,6.69
2023-01-12T07:34:01.059Z,6.82
2023-01-12T07:36:27.692Z,6.93
2023-01-12T07:38:54.412Z,6.67
2023-01-12T07:41:21.147Z,6.87
2023-01-12T07:43:47.823Z,6.94
2023-01-12T07:46:14.523Z,7.21
2023-01-12T07:48:41.197Z,7.40
2023-01-12T07:51:07.901Z,7.23
2023-01-12T07:53:34.575Z,7.12
2023-01-12T07:56:01.199Z,7.26
2023-01-12T07:58:27.905Z,7.77
2023-01-12T08:00:54.759Z,7.91
2023-01-12T08:03:21.467Z,8.05
2023-01-12T08:05:48.195Z,8.19
2023-01-12T08:08:14.892Z,8.11
2023-01-12T08:10:41.608Z,8.24
2023-01-12T08:13:08.292Z,8.58
2023-01-12T08:15:35.020Z,8.76
2023-01-12T08:18:02.602Z,8.96
2023-01-12T08:20:30.546Z,9.09
2023-01-12T08:22:57.219Z,9.26
2023-01-12T08:25:23.837Z,9.34
2023-01-12T08:27:50.553Z,9.37
2023-01-12T08:30:17.294Z,9.38
2023-01-12T08:32:44.016Z,9.49
2023-01-12T08:35:10.651Z,9.69
2023-01-12T08:37:37.325Z,9.81
2023-01-12T08:40:04.026Z,9.92
2023-01-12T08:42:32.108Z,9.97
2023-01-12T08:44:58.824Z,10.06
2023-01-12T08:47:25.503Z,10.25
2023-01-12T08:49:52.280Z,10.18
2023-01-12T08:52:18.995Z,10.54
2023-01-12T08:54:46.687Z,10.72
2023-01-12T08:57:13.453Z,10.74
2023-01-12T08:59:40.111Z,10.83
2023-01-12T09:02:06.902Z,10.91
2023-01-12T09:04:33.642Z,11.29
2023-01-12T09:07:00.419Z,11.31
2023-01-12T09:09:27.391Z,11.44
2023-01-12T09:11:54.103Z,11.44
2023-01-12T09:14:20.778Z,11.47
2023-01-12T09:16:47.530Z,11.50
2023-01-12T09:19:14.335Z,11.75
2023-01-12T09:21:40.970Z,11.93
2023-01-12T09:24:07.662Z,12.33
2023-01-12T09:26:34.380Z,12.20
2023-01-12T09:29:01.235Z,12.20
2023-01-12T09:31:27.862Z,12.49
2023-01-12T09:33:54.526Z,12.61
2023-01-12T09:36:21.183Z,12.64
2023-01-12T09:38:47.868Z,12.87
2023-01-12T09:41:14.532Z,12.99
2023-01-12T09:43:41.217Z,13.17
2023-01-12T09:46:07.937Z,13.06
2023-01-12T09:48:34.626Z,13.23
2023-01-12T09:51:01.295Z,13.30
2023-01-12T09:53:27.976Z,13.51
2023-01-12T09:55:54.682Z,13.75
2023-01-12T09:58:21.337Z,13.93
2023-01-12T10:00:48.086Z,13.63
2023-01-12T10:03:14.799Z,13.97
2023-01-12T10:05:41.565Z,13.61
2023-01-12T10:08:08.195Z,13.62
2023-01-12T10:10:34.868Z,14.13
2023-01-12T10:13:01.512Z,14.41
2023-01-12T10:15:28.182Z,14.69
2023-01-12T10:17:54.844Z,14.81
2023-01-12T10:20:21.545Z,14.97
2023-01-12T10:22:48.221Z,15.20
2023-01-12T10:25:14.895Z,15.38
2023-01-12T10:27:41.713Z,15.17
2023-01-12T10:30:08.410Z,15.31
2023-01-12T10:32:41.889Z,15.48
2023-01-12T10:35:08.845Z,15.55
2023-01-12T10:37:35.491Z,15.73
2023-01-12T10:40:02.225Z,15.70
2023-01-12T10:42:28.860Z,15.53
2023-01-12T10:44:55.555Z,15.49
2023-01-12T10:47:22.201Z,15.52
2023-01-12T10:49:48.853Z,15.47
2023-01-12T10:52:15.490Z,15.38
2023-01-12T10:54:42.306Z,15.43
2023-01-12T10:57:08.993Z,15.48
2023-01-12T10:59:35.716Z,15.48
2023-01-12T11:02:02.485Z,15.40
2023-01-12T11:04:29.307Z,15.20
2023-01-12T11:06:55.944Z,15.02
2023-01-12T11:09:22.594Z,14.93
2023-01-12T11:11:49.207Z,15.10
2023-01-12T11:14:19.556Z,15.14
2023-01-12T11:16:49.309Z,15.07
2023-01-12T11:19:16.009Z,15.09
2023-01-12T11:21:42.660Z,15.13
2023-01-12T11:24:09.366Z,15.05
2023-01-12T11:26:36.087Z,15.34
2023-01-12T11:29:02.748Z,15.15
2023-01-12T11:31:29.409Z,14.69
2023-01-12T11:33:56.054Z,14.35
2023-01-12T11:36:22.680Z,13.42
2023-01-12T11:38:49.388Z,14.38
2023-01-12T11:41:16.731Z,14.92
2023-01-12T11:43:44.678Z,14.73
2023-01-12T11:46:11.357Z,13.41
2023-01-12T11:48:38.055Z,13.41
2023-01-12T11:51:04.728Z,13.01
2023-01-12T11:53:31.461Z,13.57
2023-01-12T11:55:58.099Z,14.00
2023-01-12T11:58:24.786Z,14.39
2023-01-12T12:00:51.551Z,14.14
2023-01-12T12:03:18.308Z,14.80
2023-01-12T12:05:44.979Z,15.25
2023-01-12T12:08:11.808Z,15.24
2023-01-12T12:10:38.529Z,15.66
2023-01-12T12:13:05.249Z,15.60
2023-01-12T12:15:31.949Z,14.48
2023-01-12T12:17:58.641Z,14.30
2023-01-12T12:20:25.314Z,14.85
2023-01-12T12:22:52.165Z,14.75
2023-01-12T12:25:18.886Z,14.37
2023-01-12T12:27:45.537Z,14.61
2023-01-12T12:30:12.201Z,14.47
2023-01-12T12:32:38.905Z,13.89
2023-01-12T12:35:05.612Z,14.15
2023-01-12T12:37:32.296Z,14.71
2023-01-12T12:39:58.979Z,14.97
2023-01-12T12:42:25.645Z,14.75
2023-01-12T12:44:52.486Z,14.44
2023-01-12T12:47:19.214Z,14.44
2023-01-12T12:49:46.697Z,14.95
2023-01-12T12:52:13.344Z,14.74
2023-01-12T12:54:40.038Z,14.63
2023-01-12T12:57:06.736Z,14.27
2023-01-12T12:59:33.406Z,13.89
2023-01-12T13:02:00.299Z,14.11
2023-01-12T13:04:27.035Z,14.77
2023-01-12T13:06:53.743Z,15.27
2023-01-12T13:09:20.436Z,15.47
2023-01-12T13:11:47.116Z,15.46
2023-01-12T13:14:13.935Z,15.42
2023-01-12T13:16:40.598Z,15.04
2023-01-12T13:19:07.450Z,14.83
2023-01-12T13:21:34.074Z,14.91
2023-01-12T13:24:00.735Z,14.47
2023-01-12T13:26:27.415Z,14.71
2023-01-12T13:28:54.054Z,15.15
2023-01-12T13:31:20.808Z,15.15
2023-01-12T13:33:47.742Z,15.08
2023-01-12T13:36:14.446Z,15.13
2023-01-12T13:38:41.136Z,15.35
2023-01-12T13:41:07.817Z,15.45
2023-01-12T13:43:34.452Z,15.51
2023-01-12T13:46:01.215Z,15.68
2023-01-12T13:48:28.113Z,15.28
2023-01-12T13:50:54.737Z,15.53
2023-01-12T13:53:21.397Z,15.54
2023-01-12T13:55:48.080Z,15.65
2023-01-12T13:58:14.751Z,15.75
2023-01-12T14:00:41.603Z,15.36
2023-01-12T14:03:08.344Z,15.47
2023-01-12T14:05:35.067Z,15.63
2023-01-12T14:08:01.772Z,15.53
2023-01-12T14:10:28.448Z,15.70
2023-01-12T14:12:55.121Z,15.97
2023-01-12T14:15:21.837Z,16.01
2023-01-12T14:17:48.470Z,16.01
2023-01-12T14:20:15.146Z,15.66
2023-01-12T14:22:41.900Z,15.61
2023-01-12T14:25:08.573Z,15.37
2023-01-12T14:27:35.235Z,15.39
2023-01-12T14:30:01.872Z,15.40
2023-01-12T14:32:28.591Z,15.36
2023-01-12T14:34:55.284Z,15.25
2023-01-12T14:37:21.972Z,15.06
2023-01-12T14:39:48.619Z,15.10
2023-01-12T14:42:15.253Z,15.01
2023-01-12T14:44:42.110Z,14.82
2023-01-12T14:47:08.930Z,14.88
2023-01-12T14:49:35.642Z,14.75
2023-01-12T14:52:02.275Z,14.66
2023-01-12T14:54:28.919Z,14.63
2023-01-12T14:56:55.575Z,14.33
2023-01-12T14:59:22.207Z,14.17
2023-01-12T15:01:48.994Z,14.12
2023-01-12T15:04:15.815Z,14.12
2023-01-12T15:06:42.467Z,13.98
2023-01-12T15:09:09.096Z,13.87
2023-01-12T15:11:35.742Z,13.78
2023-01-12T15:14:02.389Z,13.70
2023-01-12T15:16:29.145Z,13.56
2023-01-12T15:18:55.824Z,13.51
2023-01-12T15:21:22.504Z,13.44
2023-01-12T15:23:49.152Z,13.39
2023-01-12T15:26:15.835Z,13.27
2023-01-12T15:28:42.552Z,13.19
2023-01-12T15:31:09.183Z,12.96
2023-01-12T15:33:35.845Z,12.69
2023-01-12T15:36:02.479Z,12.59
2023-01-12T15:38:29.162Z,12.37
2023-01-12T15:40:55.849Z,12.34
2023-01-12T15:43:22.544Z,12.24
2023-01-12T15:45:49.309Z,12.13
2023-01-12T15:48:15.960Z,12.11
2023-01-12T15:50:42.690Z,12.04
2023-01-12T15:53:09.318Z,11.86
2023-01-12T15:55:36.175Z,11.71
2023-01-12T15:58:03.814Z,11.70
2023-01-12T16:00:30.536Z,11.70
2023-01-12T16:02:57.234Z,11.55
2023-01-12T16:05:23.980Z,11.44
2023-01-12T16:07:50.740Z,11.34
2023-01-12T16:10:17.555Z,11.29
2023-01-12T16:12:44.485Z,11.31
2023-01-12T16:15:11.151Z,11.21
2023-01-12T16:17:37.863Z,11.16
2023-01-12T16:20:04.485Z,11.14
2023-01-12T16:22:31.214Z,11.07
2023-01-12T16:24:57.929Z,11.01
2023-01-12T16:27:24.724Z,10.85
2023-01-12T16:29:51.362Z,10.72
2023-01-12T16:32:18.396Z,10.70
2023-01-12T16:34:45.150Z,10.64
2023-01-12T16:37:11.841Z,10.52
2023-01-12T16:39:38.488Z,10.48
2023-01-12T16:42:05.116Z,10.34
2023-01-12T16:44:31.835Z,10.36
2023-01-12T16:46:58.465Z,10.38
2023-01-12T16:49:25.108Z,10.29
2023-01-12T16:51:51.801Z,10.24
2023-01-12T16:54:18.449Z,10.22
2023-01-12T16:56:45.153Z,10.12
2023-01-12T16:59:11.832Z,10.15
2023-01-12T17:01:38.690Z,10.02
2023-01-12T17:04:05.532Z,9.97
2023-01-12T17:06:32.254Z,9.92
2023-01-12T17:08:59.257Z,9.97
2023-01-12T17:11:26.028Z,9.69
2023-01-12T17:13:52.795Z,9.58
2023-01-12T17:16:19.725Z,9.63
2023-01-12T17:18:46.478Z,9.71
2023-01-12T17:21:13.216Z,9.61
2023-01-12T17:23:40.075Z,9.68
2023-01-12T17:26:06.739Z,9.72
2023-01-12T17:28:33.704Z,9.70
2023-01-12T17:31:00.490Z,9.75
2023-01-12T17:33:27.383Z,9.76
2023-01-12T17:35:54.082Z,9.71
2023-01-12T17:38:21.517Z,9.64
2023-01-12T17:40:49.032Z,9.51
2023-01-12T17:43:15.722Z,9.53
2023-01-12T17:45:42.449Z,9.36
2023-01-12T17:48:09.116Z,9.48
2023-01-12T17:50:35.821Z,9.42
2023-01-12T17:53:02.727Z,9.36
2023-01-12T17:55:29.586Z,9.38
2023-01-12T17:57:56.545Z,9.34
2023-01-12T18:00:23.212Z,9.23
2023-01-12T18:02:50.747Z,9.24
2023-01-12T18:05:17.512Z,9.24
2023-01-12T18:07:44.153Z,9.37
2023-01-12T18:10:10.906Z,9.22
2023-01-12T18:12:37.533Z,9.12
2023-01-12T18:15:04.236Z,9.19
2023-01-12T18:17:30.925Z,9.27
2023-01-12T18:19:57.746Z,9.24
2023-01-12T18:22:24.399Z,9.23
2023-01-12T18:24:51.115Z,9.20
2023-01-12T18:27:17.782Z,9.24
2023-01-12T18:29:44.443Z,9.33
2023-01-12T18:32:11.165Z,9.21
2023-01-12T18:34:37.833Z,9.08
2023-01-12T18:37:04.484Z,8.96
2023-01-12T18:39:31.121Z,9.01
2023-01-12T18:41:57.776Z,9.07
2023-01-12T18:44:24.465Z,9.20
2023-01-12T18:46:51.115Z,9.20
2023-01-12T18:49:17.766Z,9.29
2023-01-12T18:51:44.429Z,9.36
2023-01-12T18:54:11.147Z,9.29
2023-01-12T18:56:37.861Z,9.12
2023-01-12T18:59:04.523Z,9.23
2023-01-12T19:01:31.258Z,9.23
2023-01-12T19:03:58.064Z,9.16
2023-01-12T19:06:24.771Z,9.08
2023-01-12T19:08:51.506Z,9.13
2023-01-12T19:11:18.187Z,9.21
2023-01-12T19:13:44.905Z,9.20
2023-01-12T19:16:11.648Z,9.18
2023-01-12T19:18:38.467Z,9.26
2023-01-12T19:21:05.155Z,9.41
2023-01-12T19:23:31.830Z,9.34
2023-01-12T19:25:58.485Z,9.13
2023-01-12T19:28:25.405Z,8.87
2023-01-12T19:30:52.182Z,8.96
2023-01-12T19:33:18.868Z,8.96
2023-01-12T19:35:45.521Z,9.01
2023-01-12T19:38:12.199Z,9.11
2023-01-12T19:40:38.857Z,9.19
2023-01-12T19:43:05.527Z,9.29
2023-01-12T19:45:32.201Z,9.18
2023-01-12T19:47:58.926Z,9.06
2023-01-12T19:50:25.586Z,9.01
2023-01-12T19:52:52.325Z,9.00
2023-01-12T19:55:18.980Z,9.11
2023-01-12T19:57:45.655Z,9.15
2023-01-12T20:00:12.539Z,9.14
2023-01-12T20:02:39.209Z,9.02
2023-01-12T20:05:05.914Z,8.84
2023-01-12T20:07:32.638Z,9.06
2023-01-12T20:09:59.329Z,8.98
2023-01-12T20:12:25.992Z,8.97
2023-01-12T20:14:52.761Z,8.93
2023-01-12T20:17:19.401Z,8.81
2023-01-12T20:19:46.057Z,8.76
2023-01-12T20:22:12.732Z,8.92
2023-01-12T20:24:39.435Z,9.00
2023-01-12T20:27:06.218Z,8.87
2023-01-12T20:29:32.886Z,8.88
2023-01-12T20:31:59.549Z,8.71
2023-01-12T20:34:26.269Z,8.71
2023-01-12T20:36:52.943Z,8.77
2023-01-12T20:39:19.632Z,8.67
2023-01-12T20:41:46.257Z,8.78
2023-01-12T20:44:12.981Z,8.59
2023-01-12T20:46:39.691Z,8.54
2023-01-12T20:49:06.389Z,8.57
2023-01-12T20:51:33.083Z,8.54
2023-01-12T20:54:00.747Z,8.33
2023-01-12T20:56:27.542Z,8.51
2023-01-12T20:58:54.215Z,8.47
2023-01-12T21:01:20.956Z,8.34
2023-01-12T21:03:47.714Z,8.43
2023-01-12T21:06:14.488Z,8.39
2023-01-12T21:08:41.161Z,8.15
2023-01-12T21:11:07.797Z,8.16
2023-01-12T21:13:34.496Z,8.12
2023-01-12T21:16:01.126Z,7.62
2023-01-12T21:18:27.842Z,7.82
2023-01-12T21:20:54.554Z,8.00
2023-01-12T21:23:21.225Z,8.21
2023-01-12T21:25:47.886Z,7.70
2023-01-12T21:28:14.580Z,7.90
2023-01-12T21:30:41.305Z,8.08
2023-01-12T21:33:08.100Z,8.21
2023-01-12T21:35:34.776Z,8.04
2023-01-12T21:38:01.441Z,8.03
2023-01-12T21:40:28.167Z,8.02
2023-01-12T21:42:54.885Z,7.81
2023-01-12T21:45:21.567Z,8.04
2023-01-12T21:47:48.264Z,8.29
2023-01-12T21:50:14.946Z,8.26
2023-01-12T21:52:41.633Z,8.10
2023-01-12T21:55:08.315Z,8.33
2023-01-12T21:57:35.247Z,8.27
2023-01-12T22:00:01.937Z,8.32
2023-01-12T22:02:28.583Z,8.30
2023-01-12T22:04:55.233Z,8.22
2023-01-12T22:07:21.887Z,8.02
2023-01-12T22:09:48.585Z,8.07
2023-01-12T22:12:15.272Z,7.78
2023-01-12T22:14:41.910Z,8.14
2023-01-12T22:17:08.523Z,8.05
2023-01-12T22:19:35.247Z,7.93
2023-01-12T22:22:01.875Z,8.00
2023-01-12T22:24:28.479Z,7.94
2023-01-12T22:26:55.158Z,7.66
2023-01-12T22:29:21.935Z,7.84
2023-01-12T22:31:48.635Z,7.85
2023-01-12T22:34:15.339Z,7.92
2023-01-12T22:36:42.017Z,7.52
2023-01-12T22:39:08.901Z,7.22
2023-01-12T22:41:35.637Z,7.37
2023-01-12T22:44:02.323Z,7.57
2023-01-12T22:46:28.985Z,8.02
2023-01-12T22:48:55.645Z,8.11
2023-01-12T22:51:22.350Z,8.05
2023-01-12T22:53:49.008Z,8.06
2023-01-12T22:56:15.683Z,8.23
2023-01-12T22:58:42.384Z,8.37
2023-01-12T23:01:09.147Z,8.48
2023-01-12T23:03:35.977Z,8.27
2023-01-12T23:06:02.726Z,8.11
2023-01-12T23:08:29.401Z,8.09
2023-01-12T23:10:56.144Z,8.03
2023-01-12T23:13:22.830Z,8.26
2023-01-12T23:15:49.562Z,8.33
2023-01-12T23:18:16.260Z,8.44
2023-01-12T23:20:42.952Z,8.42
2023-01-12T23:23:09.639Z,8.51
2023-01-12T23:25:36.335Z,8.47
2023-01-12T23:28:05.392Z,8.55
2023-01-12T23:30:32.072Z,8.55
2023-01-12T23:32:58.817Z,8.42
2023-01-12T23:35:25.479Z,8.34
2023-01-12T23:37:52.164Z,8.18
2023-01-12T23:40:18.862Z,8.16
2023-01-12T23:42:45.547Z,8.07
2023-01-12T23:45:12.223Z,7.97
2023-01-12T23:47:38.930Z,8.08
2023-01-12T23:50:05.619Z,8.22
2023-01-12T23:52:32.271Z,8.22
2023-01-12T23:54:58.979Z,8.18
2023-01-12T23:57:25.663Z,8.21
2023-01-12T23:59:52.332Z,8.34
